Terminal Aerodrome Forecast
Issued by NWS

Home | Current Version | Previous Version | Text Only | Print | Product List | Glossary On
Versions: 1 2 3 4 5 6 7 8 9 10 11 12
452
FTUS43 KMQT 290520
TAFCMX
TAF
KCMX 290520Z 2906/3006 26005KT 3SM BR VCSH BKN008
     FM291300 26010KT 3SM BR VCSH OVC008
     FM291500 26015G23KT P6SM VCSH OVC012
     FM292100 27015G23KT 6SM -SHRA OVC015
     FM300200 27011G20KT 3SM -SHRA BR OVC010=

USA.gov is the U.S. government's official web portal to all federal, state and local government web resources and services.